Time;durP1;ratioP1;P1;durP2;ratioP2;P2;SDS_P1;SDS_P2;PMS_P1;PMS_P2;Temp;Humidity;BMP_temperature;BMP_pressure;BME280_temperature;BME280_humidity;BME280_pressure;Samples;Min_cycle;Max_cycle;Signal;HPM_P1;HPM_P2
2023/03/08 00:01:57;;;;;;;6.55;5.80;;;0.80;99.90;;;;;;5066291;28;20621;-68
2023/03/08 00:04:24;;;;;;;5.90;5.30;;;0.80;99.90;;;;;;5070478;28;20421;-69
2023/03/08 00:06:52;;;;;;;6.20;5.60;;;0.80;99.90;;;;;;5076082;28;20630;-69
2023/03/08 00:09:18;;;;;;;6.32;5.65;;;0.90;99.90;;;;;;5068433;28;21039;-68
2023/03/08 00:11:45;;;;;;;6.25;5.60;;;0.90;99.90;;;;;;5078860;28;20424;-67
2023/03/08 00:14:12;;;;;;;6.35;5.75;;;0.90;99.90;;;;;;5087450;28;20433;-67
2023/03/08 00:16:39;;;;;;;6.80;6.10;;;0.90;99.90;;;;;;5087648;28;20413;-66
2023/03/08 00:19:05;;;;;;;6.90;5.93;;;0.90;99.90;;;;;;5099491;22;20442;-72
2023/03/08 00:21:32;;;;;;;7.18;6.45;;;1.00;99.90;;;;;;5079908;28;20694;-71
2023/03/08 00:24:00;;;;;;;7.63;6.80;;;0.90;99.90;;;;;;5085091;28;20887;-72
2023/03/08 00:26:27;;;;;;;7.65;6.28;;;1.00;99.90;;;;;;5083993;28;20424;-72
2023/03/08 00:28:54;;;;;;;7.75;6.70;;;1.00;99.90;;;;;;5059363;28;20420;-72
2023/03/08 00:31:20;;;;;;;9.25;7.90;;;1.00;99.90;;;;;;5069652;28;20419;-73
2023/03/08 00:33:47;;;;;;;9.80;8.02;;;0.90;99.90;;;;;;5070215;28;20463;-72
2023/03/08 00:36:16;;;;;;;9.18;7.85;;;0.90;99.90;;;;;;5069918;28;20488;-72
2023/03/08 00:38:43;;;;;;;10.25;8.00;;;1.00;99.90;;;;;;5070277;28;20888;-74
2023/03/08 00:41:12;;;;;;;10.30;7.90;;;1.00;99.90;;;;;;5071196;28;20434;-74
2023/03/08 00:43:41;;;;;;;9.93;8.40;;;1.00;99.90;;;;;;5069893;28;20897;-73
2023/03/08 00:46:07;;;;;;;10.90;8.45;;;1.00;99.90;;;;;;5069898;28;20932;-72
2023/03/08 00:48:34;;;;;;;9.77;8.18;;;1.00;99.90;;;;;;5070317;28;20499;-73
2023/03/08 00:51:01;;;;;;;9.43;8.35;;;1.00;99.90;;;;;;5069433;28;20435;-73
2023/03/08 00:53:28;;;;;;;9.82;7.70;;;1.00;99.90;;;;;;5068506;28;20419;-73
2023/03/08 00:55:56;;;;;;;9.93;8.30;;;1.00;99.90;;;;;;5070673;28;20505;-73
2023/03/08 00:58:26;;;;;;;10.80;7.82;;;1.00;99.90;;;;;;5071145;28;20415;-73
2023/03/08 01:00:54;;;;;;;8.20;7.40;;;1.00;99.90;;;;;;5069312;28;20415;-70
2023/03/08 01:03:21;;;;;;;9.73;7.70;;;1.10;99.90;;;;;;5069453;28;20407;-71
2023/03/08 01:05:50;;;;;;;10.63;7.88;;;1.00;99.90;;;;;;5068919;28;20427;-71
2023/03/08 01:08:18;;;;;;;8.35;7.43;;;1.00;99.90;;;;;;5061998;28;20774;-70
2023/03/08 01:10:47;;;;;;;7.80;7.00;;;1.00;99.90;;;;;;5070731;28;20925;-72
2023/03/08 01:13:14;;;;;;;9.43;7.57;;;1.00;99.90;;;;;;5069875;28;20415;-73
2023/03/08 01:15:43;;;;;;;10.20;8.00;;;1.00;99.90;;;;;;5069626;28;20431;-73
2023/03/08 01:18:10;;;;;;;9.07;8.15;;;1.00;99.90;;;;;;5069807;28;20411;-73
2023/03/08 01:20:37;;;;;;;9.98;8.90;;;1.00;99.90;;;;;;5061904;28;20443;-72
2023/03/08 01:23:04;;;;;;;10.35;8.70;;;1.00;99.90;;;;;;5067428;28;20514;-74
2023/03/08 01:25:30;;;;;;;10.05;9.05;;;1.00;99.90;;;;;;5069595;28;20411;-71
2023/03/08 01:27:57;;;;;;;9.80;8.80;;;1.00;99.90;;;;;;5069618;28;20980;-72
2023/03/08 01:30:24;;;;;;;11.10;8.57;;;1.00;99.90;;;;;;5069657;28;20416;-71
2023/03/08 01:32:52;;;;;;;10.57;8.95;;;1.00;99.90;;;;;;5068079;28;20426;-71
2023/03/08 01:35:19;;;;;;;9.10;8.30;;;1.00;99.90;;;;;;5068654;28;20431;-71
2023/03/08 01:37:46;;;;;;;9.95;8.20;;;1.00;99.90;;;;;;5070231;28;20423;-71
2023/03/08 01:40:15;;;;;;;10.00;8.15;;;1.10;99.90;;;;;;5069668;28;20419;-71
2023/03/08 01:42:42;;;;;;;9.77;7.60;;;1.10;99.90;;;;;;5069197;28;20448;-71
2023/03/08 01:45:42;;;;;;;8.10;7.30;;;1.00;99.90;;;;;;5070176;28;20431;-71
2023/03/08 01:48:10;;;;;;;8.38;7.00;;;1.00;99.90;;;;;;5068362;28;20899;-71
2023/03/08 01:50:37;;;;;;;9.70;6.73;;;1.00;99.90;;;;;;5072591;28;20500;-71
2023/03/08 01:53:04;;;;;;;8.82;6.85;;;1.00;99.90;;;;;;5071297;28;20414;-73
2023/03/08 01:55:31;;;;;;;7.30;6.60;;;1.00;99.90;;;;;;5072438;28;20423;-73
2023/03/08 01:57:57;;;;;;;7.20;6.50;;;1.00;99.90;;;;;;5070397;28;20426;-71
2023/03/08 02:00:25;;;;;;;7.63;6.93;;;1.00;99.90;;;;;;5072466;28;20422;-73
2023/03/08 02:02:56;;;;;;;8.88;6.90;;;1.00;99.90;;;;;;5070354;28;20435;-71
2023/03/08 02:05:26;;;;;;;9.70;7.57;;;1.00;99.90;;;;;;5071176;28;20506;-72
2023/03/08 02:07:52;;;;;;;7.60;6.80;;;1.00;99.90;;;;;;5071323;28;20426;-73
2023/03/08 02:10:20;;;;;;;8.52;7.20;;;1.00;99.90;;;;;;5075969;28;20932;-70
2023/03/08 02:12:48;;;;;;;8.63;7.55;;;1.00;99.90;;;;;;5069756;28;20426;-72
2023/03/08 02:15:18;;;;;;;8.90;8.00;;;1.00;99.90;;;;;;5069520;28;20506;-72
2023/03/08 02:17:45;;;;;;;9.05;8.13;;;1.00;99.90;;;;;;5067611;28;20489;-71
2023/03/08 02:20:17;;;;;;;9.03;7.97;;;1.00;99.90;;;;;;5068546;28;20533;-73
2023/03/08 02:22:45;;;;;;;10.68;9.10;;;1.00;99.90;;;;;;5068526;28;20908;-72
2023/03/08 02:25:14;;;;;;;9.13;8.23;;;1.00;99.90;;;;;;5069070;28;20412;-73
2023/03/08 02:27:42;;;;;;;10.63;8.40;;;1.00;99.90;;;;;;5068915;28;20412;-72
2023/03/08 02:30:11;;;;;;;9.35;8.40;;;1.00;99.90;;;;;;5068578;28;20408;-72
2023/03/08 02:32:38;;;;;;;9.73;8.70;;;1.00;99.90;;;;;;5066211;28;20826;-72
2023/03/08 02:35:05;;;;;;;10.15;7.95;;;1.00;99.90;;;;;;5069404;28;20431;-72
2023/03/08 02:37:32;;;;;;;9.13;8.02;;;1.00;99.90;;;;;;5069018;28;20411;-74
2023/03/08 02:40:00;;;;;;;9.27;7.85;;;1.00;99.90;;;;;;5068067;28;20423;-72
2023/03/08 02:42:27;;;;;;;9.90;8.75;;;0.90;99.90;;;;;;5067727;28;20416;-73
2023/03/08 02:44:54;;;;;;;12.18;9.65;;;0.90;99.90;;;;;;5067838;28;20419;-73
2023/03/08 02:47:21;;;;;;;11.88;9.60;;;0.90;99.90;;;;;;5064745;28;20447;-73
2023/03/08 02:49:47;;;;;;;11.90;9.73;;;0.90;99.90;;;;;;5065758;28;20438;-73
2023/03/08 02:52:14;;;;;;;11.15;9.88;;;0.90;99.90;;;;;;5066953;28;20416;-73
2023/03/08 02:54:41;;;;;;;10.80;8.93;;;0.90;99.90;;;;;;5067337;28;20928;-72
2023/03/08 02:57:09;;;;;;;12.30;10.00;;;0.90;99.90;;;;;;5068740;28;20778;-72
2023/03/08 02:59:36;;;;;;;10.48;9.38;;;0.90;99.90;;;;;;5068127;28;20408;-73
2023/03/08 03:02:02;;;;;;;13.82;10.07;;;0.90;99.90;;;;;;5065330;28;20510;-73
2023/03/08 03:04:29;;;;;;;11.88;10.30;;;0.80;99.90;;;;;;5068017;28;20509;-74
2023/03/08 03:06:57;;;;;;;14.15;11.30;;;0.90;99.90;;;;;;5068317;28;20896;-72
2023/03/08 03:09:23;;;;;;;13.82;11.35;;;0.90;99.90;;;;;;5067415;28;20778;-73
2023/03/08 03:11:50;;;;;;;12.80;11.00;;;0.90;99.90;;;;;;5068078;28;20423;-74
2023/03/08 03:14:18;;;;;;;12.75;10.48;;;0.80;99.90;;;;;;5066488;28;20435;-73
2023/03/08 03:16:45;;;;;;;13.40;10.90;;;0.80;99.90;;;;;;5067167;28;20443;-74
2023/03/08 03:19:12;;;;;;;12.18;10.60;;;0.80;99.90;;;;;;5068000;28;20422;-72
2023/03/08 03:21:40;;;;;;;14.45;10.70;;;0.80;99.90;;;;;;5068224;28;20416;-74
2023/03/08 03:24:07;;;;;;;13.27;9.93;;;0.80;99.90;;;;;;5066602;28;20929;-75
2023/03/08 03:26:34;;;;;;;13.15;10.60;;;0.80;99.90;;;;;;5068277;28;20442;-72
2023/03/08 03:29:01;;;;;;;14.98;10.80;;;0.80;99.90;;;;;;5066493;28;20927;-74
2023/03/08 03:31:29;;;;;;;14.13;11.00;;;0.80;99.90;;;;;;5065422;28;20436;-72
2023/03/08 03:33:57;;;;;;;15.30;11.45;;;0.80;99.90;;;;;;5066718;28;20845;-74
2023/03/08 03:36:24;;;;;;;17.33;12.47;;;0.70;99.90;;;;;;5069078;28;20619;-74
2023/03/08 03:38:51;;;;;;;18.75;12.80;;;0.80;99.90;;;;;;5068268;28;20411;-74
2023/03/08 03:41:20;;;;;;;15.85;12.00;;;0.80;99.90;;;;;;5066823;28;20794;-72
2023/03/08 03:43:47;;;;;;;20.40;14.05;;;0.80;99.90;;;;;;5065375;28;20462;-74
2023/03/08 03:46:16;;;;;;;17.10;12.93;;;0.80;99.90;;;;;;5059184;28;20416;-75
2023/03/08 03:48:44;;;;;;;16.02;11.98;;;0.80;99.90;;;;;;5067033;28;20411;-73
2023/03/08 03:51:16;;;;;;;15.57;10.43;;;0.80;99.90;;;;;;5067768;28;20411;-73
2023/03/08 03:53:43;;;;;;;13.73;11.18;;;0.70;99.90;;;;;;5066867;28;20415;-73
2023/03/08 03:56:12;;;;;;;15.38;12.40;;;0.70;99.90;;;;;;5068643;28;20423;-74
2023/03/08 03:58:40;;;;;;;17.15;13.35;;;0.70;99.90;;;;;;5070168;28;20431;-74
2023/03/08 04:01:08;;;;;;;16.80;13.35;;;0.70;99.90;;;;;;5071326;28;20418;-73
2023/03/08 04:03:34;;;;;;;20.55;14.18;;;0.70;99.90;;;;;;5068046;28;20415;-72
2023/03/08 04:06:07;;;;;;;23.35;15.75;;;0.70;99.90;;;;;;5072009;28;20510;-73
2023/03/08 04:08:40;;;;;;;22.88;16.23;;;0.70;99.90;;;;;;5071751;28;20481;-73
2023/03/08 04:11:07;;;;;;;20.67;15.85;;;0.70;99.90;;;;;;5071018;28;20411;-75
2023/03/08 04:13:34;;;;;;;19.83;14.50;;;0.70;99.90;;;;;;5064938;28;20443;-73
2023/03/08 04:16:07;;;;;;;19.85;13.68;;;0.60;99.90;;;;;;5071660;28;20419;-75
2023/03/08 04:18:34;;;;;;;20.48;14.52;;;0.60;99.90;;;;;;5071294;28;20419;-75
2023/03/08 04:21:01;;;;;;;17.88;13.82;;;0.60;99.90;;;;;;5073082;28;20909;-75
2023/03/08 04:23:29;;;;;;;18.33;13.77;;;0.60;99.90;;;;;;5072146;28;20753;-74
2023/03/08 04:25:56;;;;;;;21.17;14.00;;;0.60;99.90;;;;;;5073542;28;20423;-74
2023/03/08 04:28:22;;;;;;;18.55;14.20;;;0.60;99.90;;;;;;5066815;28;20927;-74
2023/03/08 04:30:49;;;;;;;17.27;13.20;;;0.60;99.90;;;;;;5071898;28;20426;-74
2023/03/08 04:33:16;;;;;;;22.45;15.38;;;0.60;99.90;;;;;;5072967;28;20426;-75
2023/03/08 04:35:43;;;;;;;24.60;15.52;;;0.50;99.90;;;;;;5076903;28;20424;-75
2023/03/08 04:38:09;;;;;;;23.60;16.00;;;0.50;99.90;;;;;;5077569;28;20424;-74
2023/03/08 04:41:00;;;;;;;25.90;16.30;;;0.50;99.90;;;;;;5078436;28;20798;-76
2023/03/08 04:43:24;;;;;;;27.10;17.85;;;0.50;99.90;;;;;;5069575;28;20400;-77
2023/03/08 04:45:51;;;;;;;24.97;18.17;;;0.50;99.90;;;;;;5076308;28;20408;-78
2023/03/08 04:48:18;;;;;;;25.90;17.60;;;0.50;99.90;;;;;;5076576;28;20411;-77
2023/03/08 04:50:44;;;;;;;23.48;17.88;;;0.60;99.90;;;;;;5081265;28;20415;-76
2023/03/08 04:53:11;;;;;;;23.73;17.23;;;0.60;99.90;;;;;;5076989;28;20422;-75
2023/03/08 04:55:39;;;;;;;21.60;16.15;;;0.60;99.90;;;;;;5076225;28;20475;-77
2023/03/08 04:58:06;;;;;;;23.73;17.30;;;0.60;99.90;;;;;;5068292;28;20448;-77
2023/03/08 05:00:33;;;;;;;23.27;16.87;;;0.60;99.90;;;;;;5078025;28;20423;-77
2023/03/08 05:03:00;;;;;;;20.15;15.82;;;0.60;99.90;;;;;;5076191;28;20411;-79
2023/03/08 05:05:27;;;;;;;18.80;14.52;;;0.60;99.90;;;;;;5078760;28;20495;-77
2023/03/08 05:07:53;;;;;;;21.50;13.43;;;0.60;99.90;;;;;;5073864;28;20427;-78
2023/03/08 05:10:20;;;;;;;18.67;13.87;;;0.60;99.90;;;;;;5074737;28;20477;-78
2023/03/08 05:12:49;;;;;;;17.88;13.40;;;0.60;99.90;;;;;;5077856;28;20990;-78
2023/03/08 05:15:15;;;;;;;17.77;13.70;;;0.50;99.90;;;;;;5071395;28;20437;-78
2023/03/08 05:17:42;;;;;;;22.83;16.75;;;0.50;99.90;;;;;;5074904;28;20419;-78
2023/03/08 05:20:11;;;;;;;27.65;17.92;;;0.50;99.90;;;;;;5077959;28;20431;-77
2023/03/08 05:22:37;;;;;;;25.73;18.13;;;0.50;99.90;;;;;;5061070;28;20417;-78
2023/03/08 05:25:05;;;;;;;27.35;19.55;;;0.50;99.90;;;;;;5063330;28;20437;-79
2023/03/08 05:27:32;;;;;;;26.10;19.27;;;0.50;99.90;;;;;;5074597;28;20416;-77
2023/03/08 05:30:00;;;;;;;25.52;18.50;;;0.50;99.90;;;;;;5074236;28;20432;-77
2023/03/08 05:32:27;;;;;;;30.00;20.80;;;0.50;99.90;;;;;;5072026;28;20505;-81
2023/03/08 05:34:54;;;;;;;26.08;19.40;;;0.50;99.90;;;;;;5075006;28;20417;-80
2023/03/08 05:37:24;;;;;;;26.27;19.92;;;0.50;99.90;;;;;;5055634;28;20414;-79
2023/03/08 05:39:51;;;;;;;28.23;20.08;;;0.50;99.90;;;;;;5070786;28;20446;-78
2023/03/08 05:42:18;;;;;;;31.70;21.35;;;0.50;99.90;;;;;;5062291;28;20415;-78
2023/03/08 05:44:45;;;;;;;28.88;20.88;;;0.50;99.90;;;;;;5075737;28;20508;-79
2023/03/08 05:47:13;;;;;;;25.58;18.40;;;0.50;99.90;;;;;;5075203;28;20422;-79
2023/03/08 05:49:40;;;;;;;27.13;18.70;;;0.50;99.90;;;;;;5058469;28;20464;-76
2023/03/08 05:52:07;;;;;;;26.13;18.33;;;0.50;99.90;;;;;;5068885;28;20942;-78
2023/03/08 05:54:33;;;;;;;28.73;17.95;;;0.50;99.90;;;;;;5062318;28;20413;-78
2023/03/08 05:57:00;;;;;;;27.63;18.95;;;0.50;99.90;;;;;;5073888;28;20804;-79
2023/03/08 05:59:27;;;;;;;27.55;18.75;;;0.50;99.90;;;;;;5062683;28;20416;-79
2023/03/08 06:01:54;;;;;;;29.38;19.70;;;0.50;99.90;;;;;;5065029;28;20435;-77
2023/03/08 06:04:22;;;;;;;28.90;19.00;;;0.50;99.90;;;;;;5067029;28;20469;-77
2023/03/08 06:06:49;;;;;;;29.83;19.70;;;0.50;99.90;;;;;;5064928;28;20490;-77
2023/03/08 06:09:16;;;;;;;27.95;18.70;;;0.50;99.90;;;;;;5068441;28;20441;-75
2023/03/08 06:11:42;;;;;;;27.10;18.27;;;0.50;99.90;;;;;;5065537;28;20424;-75
2023/03/08 06:14:09;;;;;;;24.17;17.33;;;0.50;99.90;;;;;;5069261;28;20458;-75
2023/03/08 06:16:36;;;;;;;27.30;18.38;;;0.50;99.90;;;;;;5066263;28;20470;-75
2023/03/08 06:19:03;;;;;;;27.20;18.73;;;0.50;99.90;;;;;;5092860;22;20440;-70
2023/03/08 06:21:31;;;;;;;28.70;18.70;;;0.50;99.90;;;;;;5078095;28;20432;-70
2023/03/08 06:23:58;;;;;;;26.10;17.85;;;0.50;99.90;;;;;;5080411;28;20411;-69
2023/03/08 06:26:25;;;;;;;27.05;17.73;;;0.50;99.90;;;;;;5084745;28;20432;-69
2023/03/08 06:28:51;;;;;;;25.17;16.67;;;0.50;99.90;;;;;;5090630;28;20820;-69
2023/03/08 06:31:19;;;;;;;25.38;16.88;;;0.50;99.90;;;;;;5081836;28;20433;-69
2023/03/08 06:33:46;;;;;;;22.50;15.52;;;0.50;99.90;;;;;;5083448;28;20416;-70
2023/03/08 06:36:15;;;;;;;21.40;15.10;;;0.50;99.90;;;;;;5092997;28;20939;-69
2023/03/08 06:38:43;;;;;;;22.00;15.55;;;0.50;99.90;;;;;;5078182;28;20419;-69
2023/03/08 06:41:12;;;;;;;24.10;15.80;;;0.50;99.90;;;;;;5084477;28;20430;-69
2023/03/08 06:43:39;;;;;;;17.38;13.45;;;0.50;99.90;;;;;;5087915;28;20805;-69
2023/03/08 06:46:07;;;;;;;18.90;13.93;;;0.50;99.90;;;;;;5077674;28;20496;-69
2023/03/08 06:48:34;;;;;;;18.55;13.73;;;0.50;99.90;;;;;;5076056;28;20413;-69
2023/03/08 06:51:01;;;;;;;18.08;13.80;;;0.50;99.90;;;;;;5088832;28;20433;-69
2023/03/08 06:53:28;;;;;;;17.05;12.48;;;0.50;99.90;;;;;;5091112;28;20929;-70
2023/03/08 06:55:56;;;;;;;18.42;13.88;;;0.50;99.90;;;;;;5089358;28;20779;-70
2023/03/08 06:58:23;;;;;;;17.17;13.20;;;0.50;99.90;;;;;;5094794;28;20848;-70
2023/03/08 07:00:50;;;;;;;16.75;12.40;;;0.50;99.90;;;;;;5079719;28;20417;-69
2023/03/08 07:03:16;;;;;;;16.70;12.40;;;0.50;99.90;;;;;;5082144;28;20422;-69
2023/03/08 07:05:43;;;;;;;14.53;11.70;;;0.50;99.90;;;;;;5075575;28;20467;-70
2023/03/08 07:08:10;;;;;;;18.10;12.07;;;0.60;99.90;;;;;;5097635;28;20414;-70
2023/03/08 07:10:37;;;;;;;14.32;11.73;;;0.60;99.90;;;;;;5082578;28;20415;-70
2023/03/08 07:13:05;;;;;;;14.90;11.80;;;0.60;99.90;;;;;;5085188;28;20442;-70
2023/03/08 07:15:31;;;;;;;15.77;11.80;;;0.60;99.90;;;;;;5080269;28;20419;-71
2023/03/08 07:17:59;;;;;;;15.40;11.95;;;0.60;99.90;;;;;;5085797;28;20429;-72
2023/03/08 07:20:27;;;;;;;15.57;12.40;;;0.60;99.90;;;;;;5085845;28;20599;-70
2023/03/08 07:22:54;;;;;;;17.35;12.30;;;0.60;99.90;;;;;;5092233;28;20425;-69
2023/03/08 07:25:21;;;;;;;17.30;12.75;;;0.50;99.90;;;;;;5075128;28;20505;-71
2023/03/08 07:27:48;;;;;;;16.05;12.40;;;0.60;99.90;;;;;;5100610;28;20424;-71
2023/03/08 07:30:17;;;;;;;17.98;13.40;;;0.60;99.90;;;;;;5082664;28;20930;-72
2023/03/08 07:32:44;;;;;;;16.08;12.90;;;0.60;99.90;;;;;;5080500;28;20776;-71
2023/03/08 07:35:12;;;;;;;17.88;12.57;;;0.60;99.90;;;;;;5084512;28;20451;-71
2023/03/08 07:37:39;;;;;;;14.88;13.07;;;0.60;99.90;;;;;;5087448;28;20432;-71
2023/03/08 07:40:07;;;;;;;19.02;14.02;;;0.60;99.90;;;;;;5088601;28;20412;-72
2023/03/08 07:42:34;;;;;;;17.90;13.80;;;0.60;99.90;;;;;;5097393;28;20446;-71
2023/03/08 07:45:01;;;;;;;17.05;13.60;;;0.70;99.90;;;;;;5088862;28;20420;-71
2023/03/08 07:47:29;;;;;;;17.20;13.15;;;0.70;99.90;;;;;;5078807;28;20419;-71
2023/03/08 07:49:56;;;;;;;17.15;13.73;;;0.70;99.90;;;;;;5073092;28;20409;-72
2023/03/08 07:52:27;;;;;;;18.48;14.50;;;0.70;99.90;;;;;;5081787;28;21141;-73
2023/03/08 07:54:54;;;;;;;19.25;14.45;;;0.70;99.90;;;;;;5094351;28;20421;-73
2023/03/08 07:57:20;;;;;;;20.02;13.82;;;0.70;99.90;;;;;;5087447;28;20424;-72
2023/03/08 07:59:47;;;;;;;16.42;13.63;;;0.70;99.90;;;;;;5089252;28;20416;-71
2023/03/08 08:02:15;;;;;;;21.00;15.07;;;0.70;99.90;;;;;;5078869;28;20418;-71
2023/03/08 08:04:43;;;;;;;17.70;14.40;;;0.70;99.90;;;;;;5080480;28;20422;-72
2023/03/08 08:07:13;;;;;;;18.48;14.10;;;0.80;99.90;;;;;;5089727;28;20421;-72
2023/03/08 08:09:40;;;;;;;17.20;14.65;;;0.80;99.90;;;;;;5091310;28;20414;-72
2023/03/08 08:12:07;;;;;;;15.50;13.13;;;0.80;99.90;;;;;;5080422;28;20428;-71
2023/03/08 08:14:34;;;;;;;18.20;14.05;;;0.80;99.90;;;;;;5081812;28;20425;-71
2023/03/08 08:17:01;;;;;;;17.15;14.00;;;0.80;99.90;;;;;;5080889;28;20437;-70
2023/03/08 08:19:28;;;;;;;16.90;13.45;;;0.80;99.90;;;;;;5088072;28;20428;-71
2023/03/08 08:21:56;;;;;;;18.23;13.90;;;0.80;99.90;;;;;;5090056;28;20490;-71
2023/03/08 08:24:23;;;;;;;17.20;13.65;;;0.80;99.90;;;;;;5080828;28;20443;-71
2023/03/08 08:26:49;;;;;;;18.00;14.10;;;0.80;99.90;;;;;;5095437;28;20404;-70
2023/03/08 08:29:16;;;;;;;18.40;14.60;;;0.80;99.90;;;;;;5096830;28;20407;-70
2023/03/08 08:31:43;;;;;;;18.60;14.03;;;0.80;99.90;;;;;;5077280;28;20415;-71
2023/03/08 08:34:10;;;;;;;15.65;14.05;;;0.80;99.90;;;;;;5076807;28;20445;-71
2023/03/08 08:36:37;;;;;;;16.08;14.23;;;0.90;99.90;;;;;;5083774;28;20429;-70
2023/03/08 08:39:05;;;;;;;18.17;14.52;;;0.90;99.90;;;;;;5088763;28;20433;-71
2023/03/08 08:41:32;;;;;;;17.60;14.40;;;1.00;99.90;;;;;;5097630;28;20410;-72
2023/03/08 08:43:59;;;;;;;17.48;14.30;;;1.00;99.90;;;;;;5094927;28;20432;-71
2023/03/08 08:46:27;;;;;;;16.25;13.80;;;1.10;99.90;;;;;;5091184;28;20415;-71
2023/03/08 08:48:54;;;;;;;16.73;13.77;;;1.10;99.90;;;;;;5081044;28;20467;-71
2023/03/08 08:51:21;;;;;;;16.63;13.73;;;1.20;99.90;;;;;;5079432;28;20905;-70
2023/03/08 08:53:48;;;;;;;16.50;13.95;;;1.30;99.90;;;;;;5079509;28;20430;-70
2023/03/08 08:56:17;;;;;;;15.55;13.95;;;1.30;99.90;;;;;;5103846;28;20409;-69
2023/03/08 08:58:45;;;;;;;16.38;13.90;;;1.40;99.90;;;;;;5099279;28;20429;-70
2023/03/08 09:01:16;;;;;;;14.70;13.20;;;1.40;99.90;;;;;;5089730;28;20430;-70
2023/03/08 09:03:43;;;;;;;14.20;12.90;;;1.50;99.90;;;;;;5093422;28;20521;-71
2023/03/08 09:06:10;;;;;;;14.45;13.15;;;1.50;99.90;;;;;;5095520;28;20428;-70
2023/03/08 09:08:37;;;;;;;14.50;13.10;;;1.60;99.90;;;;;;5080367;28;20419;-70
2023/03/08 09:11:05;;;;;;;14.77;13.27;;;1.60;99.90;;;;;;5075962;28;20414;-71
2023/03/08 09:13:33;;;;;;;14.77;13.27;;;1.60;99.90;;;;;;5094808;28;20497;-71
2023/03/08 09:16:00;;;;;;;14.80;13.20;;;1.70;99.90;;;;;;5100723;28;20434;-70
2023/03/08 09:18:27;;;;;;;15.20;13.63;;;1.70;99.90;;;;;;5103396;28;20424;-68
2023/03/08 09:20:54;;;;;;;15.93;14.23;;;1.80;99.90;;;;;;5070748;28;20422;-69
2023/03/08 09:23:20;;;;;;;14.73;13.10;;;1.80;99.90;;;;;;5082848;28;20413;-70
2023/03/08 09:25:55;;;;;;;15.80;13.85;;;1.80;99.90;;;;;;5077171;28;20445;-67
2023/03/08 09:28:22;;;;;;;15.00;13.50;;;1.80;99.90;;;;;;5095221;28;20426;-70
2023/03/08 09:30:50;;;;;;;15.38;13.93;;;1.80;99.90;;;;;;5078949;28;20430;-69
2023/03/08 09:33:17;;;;;;;15.70;14.10;;;1.80;99.90;;;;;;5075006;28;20418;-69
2023/03/08 09:35:44;;;;;;;15.30;13.80;;;1.80;99.90;;;;;;5081218;28;20411;-68
2023/03/08 09:38:11;;;;;;;15.23;13.70;;;1.90;99.90;;;;;;5086057;28;20430;-68
2023/03/08 09:40:45;;;;;;;15.23;13.73;;;1.90;99.90;;;;;;5086672;28;20431;-68
2023/03/08 09:43:23;;;;;;;15.05;13.52;;;2.10;99.90;;;;;;5088986;28;20430;-68
2023/03/08 09:45:54;;;;;;;15.30;13.90;;;2.10;99.90;;;;;;5103884;28;20408;-68
2023/03/08 09:48:24;;;;;;;17.20;15.60;;;2.20;99.90;;;;;;5090836;28;20414;-70
2023/03/08 09:50:53;;;;;;;16.73;15.02;;;2.30;99.90;;;;;;5088846;28;20529;-69
2023/03/08 09:53:26;;;;;;;16.70;15.00;;;2.50;99.90;;;;;;5089931;28;20718;-68
2023/03/08 09:55:56;;;;;;;16.67;14.90;;;2.60;99.90;;;;;;5083299;28;20430;-70
2023/03/08 09:58:31;;;;;;;16.48;14.88;;;2.50;99.90;;;;;;5092206;28;20420;-70
2023/03/08 10:01:09;;;;;;;16.15;14.55;;;2.40;99.90;;;;;;5093978;28;20930;-70
2023/03/08 10:04:00;;;;;;;15.30;13.88;;;2.40;99.90;;;;;;5099896;28;20890;-68
2023/03/08 10:06:34;;;;;;;17.02;14.88;;;2.30;99.90;;;;;;5076062;28;20443;-68
2023/03/08 10:09:15;;;;;;;16.30;14.60;;;2.10;99.90;;;;;;5088467;28;20934;-68
2023/03/08 10:11:51;;;;;;;16.80;15.10;;;2.00;99.90;;;;;;5095134;28;21048;-70
2023/03/08 10:14:22;;;;;;;16.55;15.05;;;2.00;99.90;;;;;;5083612;28;20431;-70
2023/03/08 10:16:55;;;;;;;17.17;15.48;;;2.00;99.90;;;;;;5079312;28;20743;-70
2023/03/08 10:19:27;;;;;;;17.02;15.43;;;1.90;99.90;;;;;;5088719;28;20408;-70
2023/03/08 10:21:57;;;;;;;17.02;15.43;;;2.00;99.90;;;;;;5080898;28;20885;-69
2023/03/08 10:24:29;;;;;;;16.10;14.60;;;2.00;99.90;;;;;;5091320;28;20432;-69
2023/03/08 10:27:02;;;;;;;17.10;15.40;;;2.00;99.90;;;;;;5090715;28;20435;-69
2023/03/08 10:29:29;;;;;;;18.10;16.40;;;2.10;99.90;;;;;;5094274;28;20414;-70
2023/03/08 10:31:57;;;;;;;19.73;17.73;;;2.20;99.90;;;;;;5074046;28;21084;-69
2023/03/08 10:34:30;;;;;;;16.85;15.25;;;2.40;99.90;;;;;;5075997;28;20408;-69
2023/03/08 10:37:00;;;;;;;17.60;15.50;;;2.60;99.90;;;;;;5086896;28;21061;-69
2023/03/08 10:39:27;;;;;;;17.33;15.63;;;2.70;99.90;;;;;;5093040;28;20428;-69
2023/03/08 10:41:57;;;;;;;20.77;18.37;;;2.70;99.90;;;;;;5091719;28;20726;-69
2023/03/08 10:44:32;;;;;;;18.13;16.35;;;2.70;99.90;;;;;;5098846;28;20910;-69
2023/03/08 10:47:03;;;;;;;16.38;14.85;;;2.70;99.90;;;;;;5067965;28;20775;-69
2023/03/08 10:49:30;;;;;;;15.63;14.13;;;2.80;99.90;;;;;;5081632;28;20748;-69
2023/03/08 10:51:59;;;;;;;16.92;15.32;;;2.80;99.90;;;;;;5088306;28;20520;-68
2023/03/08 10:54:26;;;;;;;16.85;15.25;;;2.90;99.90;;;;;;5103688;28;20721;-69
2023/03/08 10:56:57;;;;;;;14.68;13.38;;;2.90;99.90;;;;;;5086733;28;20935;-68
2023/03/08 10:59:31;;;;;;;17.10;15.40;;;2.90;99.90;;;;;;5096887;28;20416;-68
2023/03/08 11:02:01;;;;;;;16.35;14.75;;;2.80;99.90;;;;;;5077718;28;20816;-67
2023/03/08 11:04:30;;;;;;;16.20;14.50;;;2.80;99.90;;;;;;5084455;28;20426;-69
2023/03/08 11:06:57;;;;;;;16.20;14.70;;;2.80;99.90;;;;;;5100648;28;20412;-68
2023/03/08 11:09:26;;;;;;;14.73;13.32;;;2.80;99.90;;;;;;5073746;28;20417;-68
2023/03/08 11:11:53;;;;;;;15.20;13.90;;;2.80;99.90;;;;;;5085195;28;20923;-68
2023/03/08 11:14:20;;;;;;;15.10;13.70;;;2.90;99.90;;;;;;5100193;28;20416;-69
2023/03/08 11:17:10;;;;;;;15.48;13.98;;;2.90;99.90;;;;;;5083072;28;20419;-70
2023/03/08 11:19:49;;;;;;;15.70;14.20;;;2.90;99.90;;;;;;5086197;28;20427;-69
2023/03/08 11:22:25;;;;;;;15.40;13.90;;;3.00;99.90;;;;;;5083082;28;20415;-69
2023/03/08 11:25:11;;;;;;;15.80;14.40;;;3.00;99.90;;;;;;5082901;28;20422;-68
2023/03/08 11:27:58;;;;;;;15.45;13.98;;;3.00;99.90;;;;;;5081911;28;22332;-69
2023/03/08 11:30:34;;;;;;;14.50;13.13;;;3.10;99.90;;;;;;5086262;28;20430;-69
2023/03/08 11:33:36;;;;;;;15.35;14.00;;;3.20;99.90;;;;;;5093218;28;20420;-69
2023/03/08 11:36:06;;;;;;;14.23;12.93;;;3.40;99.90;;;;;;5066409;28;20763;-69
2023/03/08 11:38:34;;;;;;;14.32;13.02;;;3.50;99.90;;;;;;5090258;28;20459;-69
2023/03/08 11:41:13;;;;;;;14.30;13.10;;;3.70;99.90;;;;;;5093203;28;20424;-69
2023/03/08 11:44:09;;;;;;;13.20;12.10;;;3.80;99.90;;;;;;5075536;28;20921;-69
2023/03/08 11:46:49;;;;;;;12.85;11.75;;;3.90;99.90;;;;;;5087252;28;20805;-69
2023/03/08 11:49:40;;;;;;;12.30;11.20;;;3.80;99.90;;;;;;5091428;28;20421;-69
2023/03/08 11:52:15;;;;;;;12.05;11.05;;;3.70;99.90;;;;;;5077654;28;20441;-69
2023/03/08 11:54:55;;;;;;;12.30;11.30;;;3.80;99.90;;;;;;5087281;28;20419;-69
2023/03/08 11:57:25;;;;;;;11.70;10.70;;;3.90;99.90;;;;;;5068586;28;20433;-69
2023/03/08 11:59:56;;;;;;;12.48;11.15;;;3.90;99.90;;;;;;5088858;28;20897;-70
2023/03/08 12:02:27;;;;;;;12.80;11.70;;;4.00;99.90;;;;;;5078368;28;20441;-69
2023/03/08 12:05:02;;;;;;;11.60;10.60;;;4.20;99.90;;;;;;5087360;28;20423;-69
2023/03/08 12:07:36;;;;;;;11.63;10.63;;;4.30;99.90;;;;;;5089786;28;20453;-68
2023/03/08 12:10:11;;;;;;;12.40;11.40;;;4.20;99.90;;;;;;5097870;28;20915;-68
2023/03/08 12:12:41;;;;;;;12.05;11.05;;;4.20;99.90;;;;;;5072647;28;20799;-69
2023/03/08 12:15:29;;;;;;;11.70;10.80;;;4.30;99.90;;;;;;5103089;28;20406;-69
2023/03/08 12:18:04;;;;;;;11.68;10.68;;;4.40;99.90;;;;;;5076888;28;20432;-69
2023/03/08 12:20:39;;;;;;;13.02;12.02;;;4.40;99.90;;;;;;5102433;22;20427;-70
2023/03/08 12:23:16;;;;;;;12.13;11.13;;;4.50;99.90;;;;;;5078620;28;20430;-69
2023/03/08 12:25:47;;;;;;;11.52;10.63;;;4.50;99.90;;;;;;5069416;28;20413;-70
2023/03/08 12:28:23;;;;;;;12.10;11.10;;;4.60;99.90;;;;;;5063179;28;20436;-72
2023/03/08 12:31:01;;;;;;;11.93;10.98;;;4.70;99.90;;;;;;5039793;28;20831;-69
2023/03/08 12:33:31;;;;;;;12.10;11.10;;;4.80;99.90;;;;;;5048641;28;20431;-70
2023/03/08 12:36:01;;;;;;;12.63;11.63;;;4.90;99.90;;;;;;5045080;28;20571;-70
2023/03/08 12:38:34;;;;;;;11.25;10.35;;;5.00;99.90;;;;;;5045561;28;20929;-69
2023/03/08 12:41:02;;;;;;;10.30;9.50;;;5.20;99.90;;;;;;5048239;28;20409;-71
2023/03/08 12:43:31;;;;;;;12.00;11.00;;;5.10;99.90;;;;;;5037379;28;20856;-69
2023/03/08 12:46:04;;;;;;;12.20;11.20;;;5.10;99.90;;;;;;5041435;28;20417;-71
2023/03/08 12:48:34;;;;;;;11.10;10.30;;;5.10;99.90;;;;;;5034321;28;20590;-69
2023/03/08 12:51:08;;;;;;;10.75;9.85;;;5.00;99.90;;;;;;5046939;28;20520;-69